createdAt,value
2022-07-29T00:01:05.094Z,42.37
2022-07-29T00:03:32.552Z,42.19
2022-07-29T00:06:00.792Z,41.64
2022-07-29T00:08:29.822Z,42.11
2022-07-29T00:10:57.235Z,42.07
2022-07-29T00:13:31.846Z,42.03
2022-07-29T00:16:04.424Z,41.98
2022-07-29T00:18:32.754Z,42.56
2022-07-29T00:21:00.469Z,41.76
2022-07-29T00:23:30.649Z,42.11
2022-07-29T00:25:58.189Z,42.36
2022-07-29T00:28:25.615Z,41.96
2022-07-29T00:30:53.015Z,42.36
2022-07-29T00:33:20.436Z,41.62
2022-07-29T00:35:47.934Z,42.24
2022-07-29T00:38:16.761Z,41.73
2022-07-29T00:40:46.054Z,41.84
2022-07-29T00:43:14.403Z,41.81
2022-07-29T00:45:41.820Z,42.48
2022-07-29T00:48:09.247Z,41.97
2022-07-29T00:50:37.450Z,42.44
2022-07-29T00:53:07.058Z,42.09
2022-07-29T00:55:34.105Z,41.75
2022-07-29T00:58:03.101Z,42.68
2022-07-29T01:00:30.955Z,41.87
2022-07-29T01:02:58.782Z,42.21
2022-07-29T01:05:48.065Z,41.32
2022-07-29T01:08:17.135Z,41.33
2022-07-29T01:10:46.134Z,40.61
2022-07-29T01:13:15.842Z,37.71
2022-07-29T01:15:49.192Z,37.59
2022-07-29T01:18:22.112Z,37.45
2022-07-29T01:21:07.091Z,39.87
2022-07-29T01:23:49.250Z,40.19
2022-07-29T01:26:53.571Z,40.68
2022-07-29T01:29:36.092Z,42.22
2022-07-29T01:32:09.853Z,43.12
2022-07-29T01:35:03.134Z,43.16
2022-07-29T01:37:39.149Z,42.08
2022-07-29T01:40:12.945Z,43.24
2022-07-29T01:42:45.185Z,43.84
2022-07-29T01:45:18.151Z,43.40
2022-07-29T01:47:49.728Z,43.82
2022-07-29T01:50:19.531Z,43.06
2022-07-29T01:52:53.700Z,43.19
2022-07-29T01:55:23.446Z,43.96
2022-07-29T01:57:50.890Z,43.93
2022-07-29T02:00:20.083Z,43.89
2022-07-29T02:02:49.436Z,43.51
2022-07-29T02:05:20.128Z,43.99
2022-07-29T02:07:49.552Z,43.38
2022-07-29T02:10:19.871Z,43.25
2022-07-29T02:12:55.288Z,43.01
2022-07-29T02:15:26.753Z,43.51
2022-07-29T02:17:59.549Z,43.28
2022-07-29T02:20:28.907Z,43.50
2022-07-29T02:22:58.431Z,42.43
2022-07-29T02:25:26.198Z,43.13
2022-07-29T02:28:06.424Z,42.95
2022-07-29T02:30:37.770Z,44.00
2022-07-29T02:33:06.922Z,43.22
2022-07-29T02:35:35.130Z,42.90
2022-07-29T02:38:04.369Z,43.79
2022-07-29T02:40:31.796Z,43.32
2022-07-29T02:43:00.504Z,43.46
2022-07-29T02:45:28.779Z,43.53
2022-07-29T02:48:00.889Z,43.29
2022-07-29T02:50:33.943Z,43.49
2022-07-29T02:53:06.640Z,42.96
2022-07-29T02:55:38.087Z,43.53
2022-07-29T02:58:14.590Z,42.28
2022-07-29T03:00:43.976Z,42.72
2022-07-29T03:03:16.147Z,43.24
2022-07-29T03:05:43.569Z,43.23
2022-07-29T03:08:13.190Z,43.25
2022-07-29T03:10:43.725Z,43.57
2022-07-29T03:13:12.546Z,42.79
2022-07-29T03:15:40.400Z,43.11
2022-07-29T03:18:08.442Z,42.50
2022-07-29T03:20:38.916Z,43.34
2022-07-29T03:23:06.314Z,43.33
2022-07-29T03:25:33.878Z,43.01
2022-07-29T03:28:01.351Z,42.79
2022-07-29T03:30:28.770Z,42.77
2022-07-29T03:32:56.638Z,42.53
2022-07-29T03:35:26.355Z,43.71
2022-07-29T03:37:55.241Z,43.24
2022-07-29T03:40:27.677Z,43.20
2022-07-29T03:42:56.680Z,43.82
2022-07-29T03:45:25.502Z,43.10
2022-07-29T03:48:00.696Z,43.39
2022-07-29T03:50:29.791Z,43.53
2022-07-29T03:52:59.313Z,43.16
2022-07-29T03:55:27.667Z,42.85
2022-07-29T03:57:56.820Z,43.00
2022-07-29T04:00:26.703Z,43.51
2022-07-29T04:02:54.345Z,42.77
2022-07-29T04:05:21.838Z,43.39
2022-07-29T04:07:49.524Z,43.61
2022-07-29T04:10:30.037Z,43.33
2022-07-29T04:12:59.932Z,43.32
2022-07-29T04:15:31.425Z,43.69
2022-07-29T04:17:59.596Z,43.52
2022-07-29T04:20:27.012Z,43.33
2022-07-29T04:22:54.403Z,42.92
2022-07-29T04:25:23.353Z,43.18
2022-07-29T04:27:51.254Z,42.52
2022-07-29T04:30:18.743Z,43.08
2022-07-29T04:32:46.112Z,43.02
2022-07-29T04:35:13.514Z,43.11
2022-07-29T04:37:40.901Z,42.45
2022-07-29T04:40:09.404Z,42.25
2022-07-29T04:42:46.536Z,42.45
2022-07-29T04:45:15.307Z,42.40
2022-07-29T04:47:43.573Z,42.54
2022-07-29T04:50:11.085Z,42.49
2022-07-29T04:52:38.672Z,42.49
2022-07-29T04:55:07.296Z,41.87
2022-07-29T04:57:34.682Z,41.72
2022-07-29T05:00:04.442Z,41.72
2022-07-29T05:02:32.125Z,41.32
2022-07-29T05:04:59.593Z,41.64
2022-07-29T05:07:27.043Z,41.67
2022-07-29T05:09:54.608Z,41.51
2022-07-29T05:12:21.979Z,41.31
2022-07-29T05:14:49.367Z,40.99
2022-07-29T05:17:18.175Z,41.47
2022-07-29T05:19:45.615Z,41.41
2022-07-29T05:22:12.958Z,41.11
2022-07-29T05:24:40.373Z,40.63
2022-07-29T05:27:07.778Z,40.73
2022-07-29T05:29:44.539Z,40.61
2022-07-29T05:32:13.602Z,40.32
2022-07-29T05:34:50.700Z,39.39
2022-07-29T05:37:20.000Z,39.23
2022-07-29T05:39:50.610Z,39.26
2022-07-29T05:42:24.650Z,39.87
2022-07-29T05:44:52.053Z,39.09
2022-07-29T05:47:19.661Z,39.57
2022-07-29T05:49:48.671Z,38.87
2022-07-29T05:52:16.338Z,38.29
2022-07-29T05:54:43.962Z,38.34
2022-07-29T05:57:17.325Z,38.06
2022-07-29T05:59:44.793Z,38.56
2022-07-29T06:02:12.353Z,38.35
2022-07-29T06:04:39.828Z,38.50
2022-07-29T06:07:08.798Z,38.27
2022-07-29T06:09:36.573Z,38.10
2022-07-29T06:12:04.971Z,38.17
2022-07-29T06:14:32.423Z,38.58
2022-07-29T06:16:59.885Z,38.22
2022-07-29T06:19:27.278Z,39.28
2022-07-29T06:21:54.814Z,37.75
2022-07-29T06:24:23.661Z,37.92
2022-07-29T06:26:51.061Z,37.99
2022-07-29T06:29:18.517Z,38.13
2022-07-29T06:31:45.977Z,37.92
2022-07-29T06:34:13.678Z,38.15
2022-07-29T06:36:41.631Z,37.92
2022-07-29T06:39:09.946Z,37.57
2022-07-29T06:41:40.605Z,38.13
2022-07-29T06:44:10.593Z,37.38
2022-07-29T06:46:38.068Z,38.44
2022-07-29T06:49:05.864Z,38.32
2022-07-29T06:51:33.410Z,37.67
2022-07-29T06:54:02.759Z,37.37
2022-07-29T06:56:31.670Z,37.82
2022-07-29T06:59:01.615Z,37.09
2022-07-29T07:01:29.121Z,37.44
2022-07-29T07:03:56.717Z,37.27
2022-07-29T07:06:24.253Z,37.02
2022-07-29T07:08:51.741Z,36.69
2022-07-29T07:11:19.395Z,37.49
2022-07-29T07:13:46.910Z,37.50
2022-07-29T07:16:16.218Z,37.40
2022-07-29T07:18:43.774Z,36.68
2022-07-29T07:21:11.314Z,36.92
2022-07-29T07:23:39.001Z,37.29
2022-07-29T07:26:06.517Z,36.79
2022-07-29T07:28:34.032Z,37.46
2022-07-29T07:31:01.537Z,36.39
2022-07-29T07:33:30.470Z,36.41
2022-07-29T07:35:57.991Z,36.32
2022-07-29T07:38:25.441Z,37.08
2022-07-29T07:40:52.972Z,37.23
2022-07-29T07:43:20.426Z,37.37
2022-07-29T07:45:50.120Z,37.90
2022-07-29T07:48:17.704Z,36.61
2022-07-29T07:50:46.886Z,36.94
2022-07-29T07:53:14.524Z,37.04
2022-07-29T07:56:09.387Z,37.60
2022-07-29T07:58:32.236Z,37.30
2022-07-29T08:00:59.778Z,36.92
2022-07-29T08:03:27.352Z,37.44
2022-07-29T08:05:56.454Z,37.66
2022-07-29T08:08:24.018Z,37.12
2022-07-29T08:10:51.545Z,36.66
2022-07-29T08:13:19.687Z,37.19
2022-07-29T08:15:47.263Z,37.43
2022-07-29T08:18:14.806Z,36.55
2022-07-29T08:20:42.325Z,36.61
2022-07-29T08:23:11.255Z,36.22
2022-07-29T08:25:39.004Z,36.98
2022-07-29T08:28:07.834Z,35.80
2022-07-29T08:30:35.712Z,36.05
2022-07-29T08:33:03.720Z,36.16
2022-07-29T08:35:35.538Z,36.56
2022-07-29T08:38:04.506Z,36.44
2022-07-29T08:40:33.529Z,36.33
2022-07-29T08:43:06.477Z,36.98
2022-07-29T08:45:44.817Z,36.67
2022-07-29T08:48:17.419Z,36.62
2022-07-29T08:50:46.289Z,37.18
2022-07-29T08:53:16.004Z,37.16
2022-07-29T08:55:46.860Z,36.94
2022-07-29T08:58:15.780Z,38.06
2022-07-29T09:00:46.153Z,37.71
2022-07-29T09:03:18.250Z,36.91
2022-07-29T09:05:48.251Z,37.04
2022-07-29T09:08:16.937Z,36.07
2022-07-29T09:10:46.088Z,36.70
2022-07-29T09:13:13.630Z,36.68
2022-07-29T09:15:41.540Z,35.83
2022-07-29T09:18:19.483Z,36.09
2022-07-29T09:20:57.963Z,36.38
2022-07-29T09:23:25.462Z,35.64
2022-07-29T09:25:54.568Z,35.98
2022-07-29T09:28:22.215Z,36.31
2022-07-29T09:30:53.822Z,35.64
2022-07-29T09:33:22.080Z,35.74
2022-07-29T09:36:00.383Z,37.13
2022-07-29T09:38:29.449Z,36.03
2022-07-29T09:41:05.506Z,37.18
2022-07-29T09:43:35.207Z,36.14
2022-07-29T09:46:12.659Z,37.42
2022-07-29T09:48:40.598Z,37.46
2022-07-29T09:51:21.424Z,36.70
2022-07-29T09:53:50.774Z,36.54
2022-07-29T09:56:39.034Z,36.62
2022-07-29T09:59:07.338Z,36.29
2022-07-29T10:01:34.931Z,36.74
2022-07-29T10:04:02.693Z,35.92
2022-07-29T10:06:30.325Z,35.91
2022-07-29T10:09:08.574Z,36.55
2022-07-29T10:11:49.546Z,36.68
2022-07-29T10:14:18.063Z,36.30
2022-07-29T10:16:45.933Z,36.66
2022-07-29T10:19:14.689Z,36.23
2022-07-29T10:21:42.322Z,36.60
2022-07-29T10:24:14.648Z,36.34
2022-07-29T10:26:44.854Z,36.41
2022-07-29T10:29:12.422Z,36.70
2022-07-29T10:31:49.099Z,36.27
2022-07-29T10:34:29.493Z,36.67
2022-07-29T10:37:08.925Z,36.99
2022-07-29T10:39:49.866Z,36.82
2022-07-29T10:42:33.443Z,36.71
2022-07-29T10:45:04.947Z,37.10
2022-07-29T10:47:35.418Z,36.40
2022-07-29T10:50:05.898Z,36.45
2022-07-29T10:52:57.168Z,37.22
2022-07-29T10:55:36.302Z,37.14
2022-07-29T10:58:19.180Z,37.02
2022-07-29T11:00:49.549Z,36.72
2022-07-29T11:03:49.707Z,36.69
2022-07-29T11:06:27.038Z,37.04
2022-07-29T11:09:17.717Z,36.58
2022-07-29T11:11:51.541Z,37.40
2022-07-29T11:14:56.965Z,36.15
2022-07-29T11:17:26.080Z,36.15
2022-07-29T11:20:32.831Z,36.56
2022-07-29T11:23:00.461Z,36.83
2022-07-29T11:28:25.087Z,36.55
2022-07-29T11:30:55.211Z,36.40
2022-07-29T11:36:28.196Z,36.08
2022-07-29T11:42:44.449Z,35.79
2022-07-29T11:45:44.312Z,35.81
2022-07-29T11:48:28.982Z,36.18
2022-07-29T11:50:50.619Z,36.27
2022-07-29T11:53:18.806Z,36.07
2022-07-29T11:55:51.095Z,35.82
2022-07-29T11:58:25.058Z,36.31
2022-07-29T12:00:55.687Z,36.16
2022-07-29T12:06:17.428Z,36.65
2022-07-29T12:07:01.291Z,36.88
2022-07-29T12:08:45.897Z,35.77
2022-07-29T12:11:21.155Z,36.47
2022-07-29T12:13:49.802Z,37.02
2022-07-29T12:16:26.068Z,36.41
2022-07-29T12:19:03.058Z,37.12
2022-07-29T12:21:30.984Z,36.05
2022-07-29T12:24:05.685Z,35.87
2022-07-29T12:26:37.244Z,36.50
2022-07-29T12:29:11.344Z,35.83
2022-07-29T12:31:45.334Z,35.81
2022-07-29T12:34:16.896Z,36.65
2022-07-29T12:36:44.783Z,36.20
2022-07-29T12:39:12.697Z,36.23
2022-07-29T12:41:40.198Z,37.05
2022-07-29T12:44:07.740Z,36.06
2022-07-29T12:46:35.196Z,36.28
2022-07-29T12:49:04.111Z,36.89
2022-07-29T12:51:34.547Z,37.18
2022-07-29T12:54:08.006Z,36.91
2022-07-29T12:56:44.087Z,36.53
2022-07-29T12:59:17.503Z,37.09
2022-07-29T13:01:45.479Z,36.30
2022-07-29T13:04:25.628Z,36.51
2022-07-29T13:07:01.932Z,36.82
2022-07-29T13:09:39.326Z,36.44
2022-07-29T13:12:09.013Z,36.12
2022-07-29T13:14:37.095Z,36.68
2022-07-29T13:17:07.670Z,36.08
2022-07-29T13:19:39.321Z,36.65
2022-07-29T13:22:08.630Z,36.43
2022-07-29T13:24:47.267Z,35.63
2022-07-29T13:27:15.586Z,36.10
2022-07-29T13:29:43.043Z,35.98
2022-07-29T13:32:10.500Z,35.93
2022-07-29T13:34:38.035Z,36.05
2022-07-29T13:37:05.661Z,37.40
2022-07-29T13:39:34.553Z,37.04
2022-07-29T13:42:02.749Z,36.92
2022-07-29T13:44:30.230Z,36.71
2022-07-29T13:46:57.683Z,36.25
2022-07-29T13:49:25.100Z,37.53
2022-07-29T13:51:52.556Z,36.36
2022-07-29T13:54:19.946Z,36.67
2022-07-29T13:56:48.836Z,37.05
2022-07-29T13:59:16.239Z,36.51
2022-07-29T14:01:44.114Z,37.50
2022-07-29T14:04:13.023Z,36.54
2022-07-29T14:06:40.656Z,37.40
2022-07-29T14:09:08.717Z,36.84
2022-07-29T14:11:36.414Z,38.08
2022-07-29T14:14:05.567Z,36.94
2022-07-29T14:16:33.001Z,39.26
2022-07-29T14:19:01.132Z,39.03
2022-07-29T14:21:28.688Z,37.96
2022-07-29T14:23:58.109Z,37.14
2022-07-29T14:26:25.792Z,37.48
2022-07-29T14:28:54.982Z,38.05
2022-07-29T14:31:23.942Z,37.33
2022-07-29T14:33:51.430Z,37.70
2022-07-29T14:36:18.867Z,37.12
2022-07-29T14:38:46.252Z,37.35
2022-07-29T14:41:14.982Z,37.06
2022-07-29T14:43:42.418Z,37.19
2022-07-29T14:46:09.995Z,37.64
2022-07-29T14:48:39.043Z,37.20
2022-07-29T14:51:06.494Z,36.86
2022-07-29T14:53:33.919Z,37.54
2022-07-29T14:56:20.872Z,37.57
2022-07-29T14:58:50.154Z,36.90
2022-07-29T15:01:19.295Z,37.12
2022-07-29T15:03:48.386Z,37.10
2022-07-29T15:06:15.929Z,37.05
2022-07-29T15:08:43.502Z,38.61
2022-07-29T15:11:11.016Z,38.30
2022-07-29T15:13:38.846Z,38.48
2022-07-29T15:16:07.247Z,37.90
2022-07-29T15:18:34.795Z,37.86
2022-07-29T15:21:03.767Z,37.94
2022-07-29T15:23:31.332Z,38.25
2022-07-29T15:25:58.740Z,37.43
2022-07-29T15:28:26.206Z,38.21
2022-07-29T15:30:53.574Z,38.33
2022-07-29T15:33:20.978Z,38.10
2022-07-29T15:35:48.404Z,37.32
2022-07-29T15:38:17.579Z,37.75
2022-07-29T15:40:45.166Z,37.08
2022-07-29T15:43:12.645Z,37.27
2022-07-29T15:45:42.048Z,38.14
2022-07-29T15:48:14.522Z,38.10
2022-07-29T15:50:42.387Z,37.96
2022-07-29T15:53:14.529Z,38.38
2022-07-29T15:55:43.341Z,37.81
2022-07-29T15:58:12.014Z,38.07
2022-07-29T16:00:39.700Z,37.59
2022-07-29T16:03:07.162Z,37.47
2022-07-29T16:05:34.679Z,37.21
2022-07-29T16:08:02.132Z,37.94
2022-07-29T16:10:29.636Z,37.55
2022-07-29T16:12:58.564Z,38.08
2022-07-29T16:15:26.317Z,37.67
2022-07-29T16:17:53.694Z,38.27
2022-07-29T16:20:21.380Z,37.71
2022-07-29T16:22:50.115Z,37.76
2022-07-29T16:25:17.732Z,38.10
2022-07-29T16:27:45.231Z,38.27
2022-07-29T16:30:14.476Z,38.15
2022-07-29T16:32:42.004Z,38.29
2022-07-29T16:35:09.982Z,37.67
2022-07-29T16:37:37.442Z,37.60
2022-07-29T16:40:06.570Z,37.89
2022-07-29T16:42:46.748Z,38.21
2022-07-29T16:45:16.716Z,38.05
2022-07-29T16:47:45.926Z,38.07
2022-07-29T16:50:13.330Z,38.41
2022-07-29T16:52:41.014Z,37.72
2022-07-29T16:55:08.807Z,37.70
2022-07-29T16:57:36.212Z,37.91
2022-07-29T17:00:04.422Z,37.81
2022-07-29T17:02:33.220Z,38.16
2022-07-29T17:05:00.597Z,37.86
2022-07-29T17:07:29.824Z,38.46
2022-07-29T17:10:00.674Z,38.37
2022-07-29T17:12:31.161Z,38.38
2022-07-29T17:14:58.825Z,38.39
2022-07-29T17:17:38.990Z,38.39
2022-07-29T17:20:17.619Z,38.91
2022-07-29T17:22:45.175Z,38.78
2022-07-29T17:25:12.675Z,39.12
2022-07-29T17:27:48.765Z,39.61
2022-07-29T17:30:16.358Z,39.69
2022-07-29T17:32:43.828Z,39.35
2022-07-29T17:35:11.307Z,39.89
2022-07-29T17:37:40.216Z,39.58
2022-07-29T17:40:09.056Z,39.15
2022-07-29T17:42:36.572Z,39.03
2022-07-29T17:45:04.596Z,39.02
2022-07-29T17:47:32.051Z,39.56
2022-07-29T17:49:59.511Z,39.53
2022-07-29T17:52:26.964Z,39.23
2022-07-29T17:54:55.777Z,39.66
2022-07-29T17:57:23.178Z,39.74
2022-07-29T17:59:50.728Z,39.83
2022-07-29T18:02:18.261Z,39.84
2022-07-29T18:04:45.868Z,39.90
2022-07-29T18:07:18.094Z,39.44
2022-07-29T18:09:45.694Z,39.96
2022-07-29T18:12:14.683Z,39.85
2022-07-29T18:14:42.328Z,39.47
2022-07-29T18:17:09.710Z,39.97
2022-07-29T18:19:37.095Z,39.33
2022-07-29T18:22:05.075Z,39.96
2022-07-29T18:24:33.204Z,39.13
2022-07-29T18:27:00.967Z,39.31
2022-07-29T18:29:30.101Z,39.39
2022-07-29T18:31:57.605Z,39.63
2022-07-29T18:34:25.026Z,39.65
2022-07-29T18:36:52.488Z,39.66
2022-07-29T18:39:21.236Z,39.31
2022-07-29T18:41:51.009Z,39.91
2022-07-29T18:44:19.504Z,39.49
2022-07-29T18:46:51.688Z,39.38
2022-07-29T18:49:19.642Z,39.46
2022-07-29T18:51:47.239Z,39.70
2022-07-29T18:54:14.980Z,39.46
2022-07-29T18:56:42.335Z,39.75
2022-07-29T18:59:09.769Z,39.28
2022-07-29T19:01:37.341Z,39.23
2022-07-29T19:04:06.301Z,39.15
2022-07-29T19:06:33.739Z,39.68
2022-07-29T19:09:01.242Z,39.37
2022-07-29T19:11:28.683Z,39.49
2022-07-29T19:13:56.068Z,39.89
2022-07-29T19:16:23.533Z,39.38
2022-07-29T19:18:50.991Z,39.73
2022-07-29T19:21:19.955Z,39.77
2022-07-29T19:24:05.895Z,39.37
2022-07-29T19:26:35.179Z,39.35
2022-07-29T19:29:02.625Z,40.00
2022-07-29T19:31:30.566Z,40.43
2022-07-29T19:33:58.020Z,40.10
2022-07-29T19:36:26.860Z,39.54
2022-07-29T19:38:54.258Z,40.28
2022-07-29T19:41:21.649Z,40.15
2022-07-29T19:43:50.864Z,40.14
2022-07-29T19:46:20.567Z,39.83
2022-07-29T19:48:48.159Z,39.63
2022-07-29T19:51:15.594Z,40.34
2022-07-29T19:53:44.628Z,39.97
2022-07-29T19:56:12.043Z,40.45
2022-07-29T19:58:39.416Z,40.52
2022-07-29T20:01:10.254Z,39.35
2022-07-29T20:03:37.959Z,39.29
2022-07-29T20:06:05.612Z,39.21
2022-07-29T20:08:33.005Z,38.53
2022-07-29T20:11:02.139Z,39.06
2022-07-29T20:13:29.555Z,38.45
2022-07-29T20:15:57.010Z,38.64
2022-07-29T20:18:24.384Z,38.99
2022-07-29T20:20:52.038Z,38.91
2022-07-29T20:23:19.599Z,38.02
2022-07-29T20:25:47.019Z,39.03
2022-07-29T20:28:15.840Z,38.48
2022-07-29T20:30:43.227Z,38.52
2022-07-29T20:33:10.769Z,39.15
2022-07-29T20:35:38.146Z,38.63
2022-07-29T20:38:05.531Z,38.58
2022-07-29T20:40:32.938Z,38.98
2022-07-29T20:43:00.338Z,38.96
2022-07-29T20:45:29.151Z,37.87
2022-07-29T20:47:56.622Z,38.97
2022-07-29T20:50:24.362Z,38.53
2022-07-29T20:52:52.568Z,39.09
2022-07-29T20:55:20.407Z,38.33
2022-07-29T20:57:47.797Z,38.48
2022-07-29T21:00:15.559Z,38.40
2022-07-29T21:02:44.496Z,39.40
2022-07-29T21:05:11.961Z,39.05
2022-07-29T21:07:39.358Z,38.63
2022-07-29T21:10:07.519Z,38.59
2022-07-29T21:12:34.932Z,37.93
2022-07-29T21:15:02.324Z,37.92
2022-07-29T21:17:29.697Z,38.16
2022-07-29T21:19:58.487Z,38.48
2022-07-29T21:22:25.882Z,38.25
2022-07-29T21:24:53.275Z,37.77
2022-07-29T21:27:21.737Z,38.07
2022-07-29T21:29:49.887Z,38.23
2022-07-29T21:32:27.623Z,37.89
2022-07-29T21:34:59.077Z,38.21
2022-07-29T21:37:26.476Z,38.40
2022-07-29T21:39:53.854Z,39.52
2022-07-29T21:42:21.314Z,39.30
2022-07-29T21:44:48.871Z,39.55
2022-07-29T21:47:16.262Z,39.17
2022-07-29T21:49:43.764Z,40.08
2022-07-29T21:52:14.162Z,39.07
2022-07-29T21:54:42.386Z,39.23
2022-07-29T21:57:09.914Z,39.60
2022-07-29T21:59:37.315Z,39.47
2022-07-29T22:02:04.709Z,39.79
2022-07-29T22:04:32.389Z,39.46
2022-07-29T22:07:00.022Z,39.44
2022-07-29T22:09:29.075Z,39.74
2022-07-29T22:11:56.450Z,39.95
2022-07-29T22:14:23.928Z,39.59
2022-07-29T22:16:52.992Z,39.64
2022-07-29T22:19:27.519Z,39.74
2022-07-29T22:21:55.045Z,39.48
2022-07-29T22:24:22.453Z,39.92
2022-07-29T22:26:51.277Z,39.20
2022-07-29T22:29:18.699Z,39.26
2022-07-29T22:31:46.106Z,40.02
2022-07-29T22:34:13.586Z,39.86
2022-07-29T22:36:41.080Z,39.54
2022-07-29T22:39:08.481Z,39.80
2022-07-29T22:41:35.931Z,39.62
2022-07-29T22:44:05.051Z,39.71
2022-07-29T22:46:33.544Z,39.62
2022-07-29T22:49:01.190Z,39.83
2022-07-29T22:51:28.599Z,39.18
2022-07-29T22:53:55.969Z,39.97
2022-07-29T22:56:23.700Z,39.52
2022-07-29T22:58:51.180Z,39.93
2022-07-29T23:01:35.824Z,39.85
2022-07-29T23:04:05.895Z,39.16
2022-07-29T23:06:36.060Z,39.19
2022-07-29T23:09:03.489Z,39.49
2022-07-29T23:11:30.899Z,39.30
2022-07-29T23:13:58.499Z,39.31
2022-07-29T23:16:27.393Z,39.96
2022-07-29T23:18:55.569Z,39.06
2022-07-29T23:21:22.994Z,39.67
2022-07-29T23:23:50.876Z,39.83
2022-07-29T23:26:18.359Z,39.46
2022-07-29T23:28:46.006Z,39.96
2022-07-29T23:31:13.875Z,40.00
2022-07-29T23:33:42.703Z,39.85
2022-07-29T23:36:10.226Z,40.20
2022-07-29T23:38:39.181Z,39.81
2022-07-29T23:41:06.658Z,40.02
2022-07-29T23:43:34.047Z,40.41
2022-07-29T23:46:01.475Z,39.52
2022-07-29T23:48:28.878Z,40.51
2022-07-29T23:50:57.745Z,40.58
2022-07-29T23:53:25.135Z,40.64
2022-07-29T23:55:52.516Z,41.09
2022-07-29T23:58:19.967Z,40.80
